Time,TemperatureF,DewpointF,PressureIn,WindDirection,WindDirectionDegrees,WindSpeedMPH,WindSpeedGustMPH,Humidity,HourlyPrecipIn,Conditions,Clouds,dailyrainin,SoftwareType,DateUTC
2013-05-29 00:22:00,63.0,62.0,-100.00,ENE,58,-999.0,-999.0,96,-99.99,,,0.00,,2013-05-29 07:22:00,
2013-05-29 00:34:00,63.0,62.0,-100.00,ENE,58,-999.0,-999.0,96,-99.99,,,0.00,,2013-05-29 07:34:00,
2013-05-29 00:52:00,61.0,60.0,-100.00,ENE,60,-999.0,-999.0,97,-99.99,,,-99.99,,2013-05-29 07:52:00,
2013-05-29 01:02:00,61.0,60.0,-100.00,ENE,60,-999.0,-999.0,97,-99.99,,,-99.99,,2013-05-29 08:02:00,
2013-05-29 01:11:00,61.0,60.0,-100.00,ENE,60,-999.0,-999.0,97,-99.99,,,-99.99,,2013-05-29 08:11:00,
2013-05-29 01:21:00,61.0,60.0,0.00,NE,50,-999.0,-999.0,98,-99.99,,,-99.99,,2013-05-29 08:21:00,
2013-05-29 01:31:00,61.0,60.0,0.00,NE,50,-999.0,-999.0,98,-99.99,,,-99.99,,2013-05-29 08:31:00,
2013-05-29 01:42:00,61.0,60.0,0.00,NE,50,-999.0,-999.0,98,-99.99,,,-99.99,,2013-05-29 08:42:00,
2013-05-29 01:52:00,61.0,61.0,-100.00,NE,50,-999.0,-999.0,99,-99.99,,,-99.99,,2013-05-29 08:52:00,
2013-05-29 02:01:00,61.0,61.0,-100.00,NE,50,-999.0,-999.0,99,-99.99,,,-99.99,,2013-05-29 09:01:00,
2013-05-29 02:21:00,61.0,61.0,-100.00,NE,47,-999.0,-999.0,99,-99.99,,,0.00,,2013-05-29 09:21:00,
2013-05-29 02:32:00,61.0,61.0,-100.00,NE,47,-999.0,-999.0,99,-99.99,,,0.00,,2013-05-29 09:32:00,
2013-05-29 02:42:00,61.0,61.0,-100.00,NE,47,-999.0,-999.0,99,-99.99,,,0.00,,2013-05-29 09:42:00,
2013-05-29 02:52:00,61.0,61.0,-100.00,NE,47,-999.0,-999.0,99,-99.99,,,0.00,,2013-05-29 09:52:00,
2013-05-29 03:22:00,62.0,61.0,-100.00,ENE,70,-999.0,-999.0,98,-99.99,,,0.00,,2013-05-29 10:22:00,
2013-05-29 03:33:00,62.0,61.0,-100.00,ENE,70,-999.0,-999.0,98,-99.99,,,0.00,,2013-05-29 10:33:00,
2013-05-29 03:53:00,61.0,60.0,-100.00,NE,45,-999.0,-999.0,98,-99.99,,,-99.99,,2013-05-29 10:53:00,
2013-05-29 04:02:00,61.0,60.0,-100.00,NE,45,-999.0,-999.0,98,-99.99,,,-99.99,,2013-05-29 11:02:00,
2013-05-29 04:21:00,60.0,60.0,0.00,NE,48,-999.0,-999.0,99,-99.99,,,-99.99,,2013-05-29 11:21:00,
2013-05-29 04:32:00,60.0,60.0,0.00,NE,48,-999.0,-999.0,99,-99.99,,,-99.99,,2013-05-29 11:32:00,
2013-05-29 04:42:00,60.0,60.0,0.00,NE,48,-999.0,-999.0,99,-99.99,,,-99.99,,2013-05-29 11:42:00,
2013-05-29 04:52:00,60.0,60.0,-100.00,NE,49,-999.0,-999.0,100,-99.99,,,-99.99,,2013-05-29 11:52:00,
2013-05-29 05:01:00,60.0,60.0,-100.00,NE,49,-999.0,-999.0,100,-99.99,,,-99.99,,2013-05-29 12:01:00,
2013-05-29 05:11:00,60.0,60.0,-100.00,NE,49,-999.0,-999.0,100,-99.99,,,-99.99,,2013-05-29 12:11:00,
2013-05-29 05:21:00,59.0,59.0,-100.00,ENE,64,-999.0,4.0,100,-99.99,,,0.00,,2013-05-29 12:21:00,
2013-05-29 05:31:00,59.0,59.0,-100.00,ENE,64,-999.0,4.0,100,-99.99,,,0.00,,2013-05-29 12:31:00,
2013-05-29 05:42:00,59.0,59.0,-100.00,ENE,64,-999.0,4.0,100,-99.99,,,0.00,,2013-05-29 12:42:00,
2013-05-29 05:52:00,59.0,59.0,-100.00,ENE,68,-999.0,0.0,100,-99.99,,,-99.99,,2013-05-29 12:52:00,
2013-05-29 06:01:00,59.0,59.0,-100.00,ENE,68,-999.0,0.0,100,-99.99,,,-99.99,,2013-05-29 13:01:00,
2013-05-29 06:11:00,59.0,59.0,-100.00,ENE,68,-999.0,0.0,100,-99.99,,,-99.99,,2013-05-29 13:11:00,
2013-05-29 06:21:00,59.0,59.0,-100.00,NE,42,-999.0,3.0,100,-99.99,,,0.00,,2013-05-29 13:21:00,
2013-05-29 06:31:00,59.0,59.0,-100.00,NE,42,-999.0,3.0,100,-99.99,,,0.00,,2013-05-29 13:31:00,
2013-05-29 06:42:00,59.0,59.0,-100.00,NE,42,-999.0,3.0,100,-99.99,,,0.00,,2013-05-29 13:42:00,
2013-05-29 06:53:00,61.0,60.0,-100.00,NW,308,-999.0,-999.0,96,-99.99,,,-99.99,,2013-05-29 13:53:00,
2013-05-29 07:01:00,61.0,60.0,-100.00,NW,308,-999.0,-999.0,96,-99.99,,,-99.99,,2013-05-29 14:01:00,
2013-05-29 07:21:00,64.0,61.0,0.00,SSW,197,-999.0,-999.0,89,-99.99,,,0.00,,2013-05-29 14:21:00,
2013-05-29 07:31:00,64.0,61.0,0.00,SSW,197,-999.0,-999.0,89,-99.99,,,0.00,,2013-05-29 14:31:00,
2013-05-29 07:52:00,66.0,61.0,-100.00,SSW,197,-999.0,0.0,83,-99.99,,,-99.99,,2013-05-29 14:52:00,
2013-05-29 08:01:00,66.0,61.0,-100.00,SSW,197,-999.0,0.0,83,-99.99,,,-99.99,,2013-05-29 15:01:00,
2013-05-29 08:11:00,66.0,61.0,-100.00,SSW,197,-999.0,0.0,83,-99.99,,,-99.99,,2013-05-29 15:11:00,
2013-05-29 08:21:00,68.0,62.0,-100.00,SE,146,-999.0,-999.0,81,-99.99,,,0.00,,2013-05-29 15:21:00,
2013-05-29 08:32:00,68.0,62.0,-100.00,SE,146,-999.0,-999.0,81,-99.99,,,0.00,,2013-05-29 15:32:00,
2013-05-29 08:42:00,68.0,62.0,-100.00,SE,146,-999.0,-999.0,81,-99.99,,,0.00,,2013-05-29 15:42:00,
2013-05-29 08:53:00,68.0,62.0,-100.00,SE,146,-999.0,-999.0,81,-99.99,,,0.00,,2013-05-29 15:53:00,
2013-05-29 09:22:00,70.0,64.0,-100.00,South,184,-999.0,-999.0,81,-99.99,,,-99.99,,2013-05-29 16:22:00,
2013-05-29 09:33:00,70.0,64.0,-100.00,South,184,-999.0,-999.0,81,-99.99,,,-99.99,,2013-05-29 16:33:00,
2013-05-29 09:52:00,73.0,65.0,-100.00,SSE,147,-999.0,-999.0,75,-99.99,,,-99.99,,2013-05-29 16:52:00,
2013-05-29 10:02:00,73.0,65.0,-100.00,SSE,147,-999.0,-999.0,75,-99.99,,,-99.99,,2013-05-29 17:02:00,
2013-05-29 10:22:00,74.0,65.0,0.00,SSE,160,-999.0,-999.0,73,-99.99,,,-99.99,,2013-05-29 17:22:00,
2013-05-29 10:32:00,74.0,65.0,0.00,SSE,160,-999.0,-999.0,73,-99.99,,,-99.99,,2013-05-29 17:32:00,
2013-05-29 11:22:00,72.0,64.0,-100.00,South,189,-999.0,8.0,75,-99.99,,,0.00,,2013-05-29 18:22:00,
2013-05-29 11:32:00,72.0,64.0,-100.00,South,189,-999.0,8.0,75,-99.99,,,0.00,,2013-05-29 18:32:00,
2013-05-29 11:42:00,72.0,64.0,-100.00,South,189,-999.0,8.0,75,-99.99,,,0.00,,2013-05-29 18:42:00,
2013-05-29 11:52:00,72.0,64.0,-100.00,South,189,-999.0,8.0,75,-99.99,,,0.00,,2013-05-29 18:52:00,
2013-05-29 12:53:00,71.0,62.0,-100.00,WSW,254,-999.0,10.0,74,-99.99,,,-99.99,,2013-05-29 19:53:00,
2013-05-29 13:02:00,71.0,62.0,-100.00,WSW,254,-999.0,10.0,74,-99.99,,,-99.99,,2013-05-29 20:02:00,
2013-05-29 13:11:00,71.0,62.0,-100.00,WSW,254,-999.0,10.0,74,-99.99,,,-99.99,,2013-05-29 20:11:00,
2013-05-29 13:22:00,73.0,63.0,0.00,South,181,-999.0,6.0,71,-99.99,,,-99.99,,2013-05-29 20:22:00,
2013-05-29 13:32:00,73.0,63.0,0.00,South,181,-999.0,6.0,71,-99.99,,,-99.99,,2013-05-29 20:32:00,
2013-05-29 14:22:00,72.0,61.0,-100.00,SW,236,-999.0,-999.0,68,-99.99,,,0.00,,2013-05-29 21:22:00,
2013-05-29 14:31:00,71.0,62.0,-100.00,WSW,239,-999.0,11.0,72,-99.99,,,-99.99,,2013-05-29 21:31:00,
2013-05-29 14:33:00,72.0,61.0,-100.00,SW,236,-999.0,-999.0,68,-99.99,,,0.00,,2013-05-29 21:33:00,
2013-05-29 14:44:00,72.0,61.0,-100.00,SW,236,-999.0,-999.0,68,-99.99,,,0.00,,2013-05-29 21:44:00,
2013-05-29 14:53:00,71.0,62.0,-100.00,WSW,239,-999.0,11.0,72,-99.99,,,-99.99,,2013-05-29 21:53:00,
2013-05-29 15:03:00,71.0,62.0,-100.00,WSW,239,-999.0,11.0,72,-99.99,,,-99.99,,2013-05-29 22:03:00,
2013-05-29 15:12:00,71.0,62.0,-100.00,WSW,239,-999.0,11.0,72,-99.99,,,-99.99,,2013-05-29 22:12:00,
2013-05-29 15:23:00,71.0,62.0,-100.00,WSW,239,-999.0,11.0,72,-99.99,,,-99.99,,2013-05-29 22:23:00,
2013-05-29 15:31:00,72.0,61.0,-100.00,WSW,239,-999.0,10.0,69,-99.99,,,-99.99,,2013-05-29 22:31:00,
2013-05-29 15:53:00,72.0,61.0,-100.00,WSW,239,-999.0,10.0,69,-99.99,,,-99.99,,2013-05-29 22:53:00,
2013-05-29 16:02:00,72.0,61.0,-100.00,WSW,239,-999.0,10.0,69,-99.99,,,-99.99,,2013-05-29 23:02:00,
2013-05-29 16:12:00,72.0,61.0,-100.00,WSW,239,-999.0,10.0,69,-99.99,,,-99.99,,2013-05-29 23:12:00,
2013-05-29 16:21:00,72.0,61.0,-100.00,WSW,239,-999.0,10.0,69,-99.99,,,-99.99,,2013-05-29 23:21:00,
2013-05-29 17:22:00,72.0,63.0,-100.00,WSW,257,-999.0,10.0,74,-99.99,,,0.00,,2013-05-30 00:22:00,
2013-05-29 17:32:00,72.0,63.0,-100.00,WSW,257,-999.0,10.0,74,-99.99,,,0.00,,2013-05-30 00:32:00,
2013-05-29 17:52:00,70.0,63.0,-100.00,SSW,200,-999.0,-999.0,79,-99.99,,,-99.99,,2013-05-30 00:52:00,
2013-05-29 18:01:00,70.0,63.0,-100.00,SSW,200,-999.0,-999.0,79,-99.99,,,-99.99,,2013-05-30 01:01:00,
2013-05-29 18:11:00,70.0,63.0,-100.00,SSW,200,-999.0,-999.0,79,-99.99,,,-99.99,,2013-05-30 01:11:00,
2013-05-29 18:21:00,70.0,64.0,-100.00,South,180,-999.0,-999.0,80,-99.99,,,0.00,,2013-05-30 01:21:00,
2013-05-29 18:31:00,70.0,64.0,-100.00,South,180,-999.0,-999.0,80,-99.99,,,0.00,,2013-05-30 01:31:00,
2013-05-29 18:42:00,70.0,64.0,-100.00,South,180,-999.0,-999.0,80,-99.99,,,0.00,,2013-05-30 01:42:00,
2013-05-29 18:52:00,70.0,64.0,-100.00,SW,233,-999.0,-999.0,80,-99.99,,,-99.99,,2013-05-30 01:52:00,
2013-05-29 19:01:00,70.0,64.0,-100.00,SW,233,-999.0,-999.0,80,-99.99,,,-99.99,,2013-05-30 02:01:00,
2013-05-29 19:21:00,69.0,63.0,0.00,SW,222,-999.0,6.0,82,-99.99,,,0.00,,2013-05-30 02:21:00,
2013-05-29 19:32:00,69.0,63.0,0.00,SW,222,-999.0,6.0,82,-99.99,,,0.00,,2013-05-30 02:32:00,
2013-05-29 19:42:00,69.0,63.0,0.00,SW,222,-999.0,6.0,82,-99.99,,,0.00,,2013-05-30 02:42:00,
2013-05-29 19:52:00,69.0,63.0,0.00,SW,222,-999.0,6.0,82,-99.99,,,0.00,,2013-05-30 02:52:00,
2013-05-29 22:22:00,62.0,61.0,0.00,SE,145,-999.0,-999.0,98,-99.99,,,-99.99,,2013-05-30 05:22:00,
2013-05-29 22:32:00,62.0,61.0,0.00,SE,145,-999.0,-999.0,98,-99.99,,,-99.99,,2013-05-30 05:32:00,
2013-05-29 22:42:00,62.0,61.0,0.00,SE,145,-999.0,-999.0,98,-99.99,,,-99.99,,2013-05-30 05:42:00,
2013-05-29 22:52:00,62.0,62.0,-100.00,ESE,103,-999.0,0.0,100,-99.99,,,-99.99,,2013-05-30 05:52:00,
2013-05-29 23:01:00,62.0,62.0,-100.00,ESE,103,-999.0,0.0,100,-99.99,,,-99.99,,2013-05-30 06:01:00,
2013-05-29 23:12:00,62.0,62.0,-100.00,ESE,103,-999.0,0.0,100,-99.99,,,-99.99,,2013-05-30 06:12:00,
2013-05-29 23:21:00,62.0,62.0,-100.00,ESE,103,-999.0,0.0,100,-99.99,,,-99.99,,2013-05-30 06:21:00,
2013-05-29 23:52:00,61.0,61.0,-100.00,ENE,66,-999.0,-999.0,99,-99.99,,,-99.99,,2013-05-30 06:52:00,